createdAt,value
2023-02-15T00:00:27.591Z,7.40
2023-02-15T00:02:53.953Z,6.53
2023-02-15T00:05:20.315Z,6.47
2023-02-15T00:07:46.612Z,5.85
2023-02-15T00:10:13.017Z,6.25
2023-02-15T00:12:39.332Z,6.57
2023-02-15T00:15:05.743Z,5.95
2023-02-15T00:17:32.120Z,6.38
2023-02-15T00:19:58.427Z,5.68
2023-02-15T00:22:24.839Z,5.40
2023-02-15T00:24:51.188Z,5.95
2023-02-15T00:27:17.488Z,5.32
2023-02-15T00:29:43.807Z,5.32
2023-02-15T00:32:10.115Z,5.15
2023-02-15T00:34:36.534Z,5.18
2023-02-15T00:37:02.919Z,5.10
2023-02-15T00:39:29.327Z,5.10
2023-02-15T00:41:55.659Z,5.55
2023-02-15T00:44:22.151Z,5.93
2023-02-15T00:46:48.519Z,5.53
2023-02-15T00:49:14.829Z,5.43
2023-02-15T00:51:41.225Z,5.68
2023-02-15T00:54:07.821Z,5.25
2023-02-15T00:56:34.259Z,6.15
2023-02-15T00:59:00.692Z,6.07
2023-02-15T01:01:27.247Z,5.88
2023-02-15T01:03:53.603Z,5.88
2023-02-15T01:06:19.958Z,5.18
2023-02-15T01:08:47.069Z,5.40
2023-02-15T01:11:16.217Z,5.90
2023-02-15T01:13:42.821Z,4.97
2023-02-15T01:16:09.725Z,6.28
2023-02-15T01:18:36.474Z,5.57
2023-02-15T01:21:14.162Z,5.18
2023-02-15T01:23:41.689Z,4.72
2023-02-15T01:26:08.042Z,4.90
2023-02-15T01:28:34.365Z,5.40
2023-02-15T01:31:09.048Z,5.20
2023-02-15T01:33:36.560Z,5.28
2023-02-15T01:36:04.073Z,4.25
2023-02-15T01:38:30.571Z,5.53
2023-02-15T01:40:57.168Z,4.43
2023-02-15T01:43:40.692Z,5.40
2023-02-15T01:46:09.349Z,4.85
2023-02-15T01:48:42.082Z,5.38
2023-02-15T01:51:09.170Z,5.10
2023-02-15T01:53:44.547Z,4.72
2023-02-15T01:56:18.302Z,4.45
2023-02-15T01:58:45.558Z,4.55
2023-02-15T02:01:12.119Z,4.38
2023-02-15T02:03:53.105Z,5.57
2023-02-15T02:06:21.469Z,5.25
2023-02-15T02:08:49.102Z,4.63
2023-02-15T02:11:16.020Z,4.18
2023-02-15T02:13:44.371Z,5.10
2023-02-15T02:16:39.698Z,4.82
2023-02-15T02:19:33.928Z,4.95
2023-02-15T02:22:12.916Z,5.45
2023-02-15T02:24:51.554Z,4.45
2023-02-15T02:27:43.728Z,4.72
2023-02-15T02:30:34.782Z,4.40
2023-02-15T02:33:27.257Z,3.83
2023-02-15T02:36:08.594Z,4.93
2023-02-15T02:38:50.457Z,4.32
2023-02-15T02:41:41.715Z,4.75
2023-02-15T02:44:20.089Z,4.68
2023-02-15T02:46:54.727Z,4.70
2023-02-15T02:49:39.402Z,4.32
2023-02-15T02:52:27.606Z,4.72
2023-02-15T02:54:56.595Z,4.65
2023-02-15T02:57:25.016Z,4.57
2023-02-15T02:59:53.641Z,4.63
2023-02-15T03:02:27.676Z,4.68
2023-02-15T03:05:02.255Z,4.43
2023-02-15T03:07:30.274Z,4.25
2023-02-15T03:09:59.688Z,3.75
2023-02-15T03:12:35.382Z,4.28
2023-02-15T03:15:11.625Z,4.80
2023-02-15T03:17:43.141Z,4.50
2023-02-15T03:20:22.530Z,3.65
2023-02-15T03:22:54.157Z,3.65
2023-02-15T03:25:32.336Z,4.15
2023-02-15T03:28:10.297Z,4.25
2023-02-15T03:30:40.304Z,3.90
2023-02-15T03:33:08.608Z,5.03
2023-02-15T03:35:44.843Z,4.10
2023-02-15T03:38:18.664Z,5.00
2023-02-15T03:40:47.814Z,4.15
2023-02-15T03:43:29.106Z,4.78
2023-02-15T03:46:01.217Z,4.10
2023-02-15T03:48:32.441Z,4.55
2023-02-15T03:51:04.527Z,4.40
2023-02-15T03:53:31.240Z,4.20
2023-02-15T03:55:57.640Z,4.57
2023-02-15T03:58:23.980Z,4.55
2023-02-15T04:00:58.242Z,4.03
2023-02-15T04:03:35.052Z,3.75
2023-02-15T04:06:03.331Z,5.07
2023-02-15T04:08:29.897Z,4.05
2023-02-15T04:10:56.358Z,4.45
2023-02-15T04:13:25.650Z,3.50
2023-02-15T04:15:54.569Z,4.72
2023-02-15T04:18:20.965Z,4.82
2023-02-15T04:20:47.462Z,4.60
2023-02-15T04:23:13.935Z,3.72
2023-02-15T04:25:40.241Z,4.28
2023-02-15T04:28:06.721Z,4.80
2023-02-15T04:30:33.023Z,4.78
2023-02-15T04:32:59.368Z,4.63
2023-02-15T04:35:25.705Z,5.22
2023-02-15T04:37:51.989Z,5.30
2023-02-15T04:40:19.636Z,4.80
2023-02-15T04:42:48.511Z,4.95
2023-02-15T04:45:14.823Z,4.93
2023-02-15T04:47:42.041Z,5.60
2023-02-15T04:50:08.653Z,4.32
2023-02-15T04:52:34.971Z,5.57
2023-02-15T04:55:01.361Z,5.90
2023-02-15T04:57:27.671Z,5.60
2023-02-15T04:59:54.104Z,5.93
2023-02-15T05:02:20.493Z,5.75
2023-02-15T05:04:46.801Z,5.32
2023-02-15T05:07:13.217Z,5.28
2023-02-15T05:09:39.529Z,5.47
2023-02-15T05:12:06.160Z,5.20
2023-02-15T05:14:32.450Z,6.47
2023-02-15T05:16:58.756Z,5.43
2023-02-15T05:19:25.157Z,4.75
2023-02-15T05:21:51.459Z,5.88
2023-02-15T05:24:17.858Z,5.13
2023-02-15T05:26:44.172Z,5.38
2023-02-15T05:29:11.310Z,5.93
2023-02-15T05:31:38.168Z,5.40
2023-02-15T05:34:04.578Z,5.30
2023-02-15T05:36:30.875Z,4.65
2023-02-15T05:38:57.213Z,5.90
2023-02-15T05:41:23.497Z,4.95
2023-02-15T05:43:49.793Z,5.60
2023-02-15T05:46:16.211Z,5.68
2023-02-15T05:48:42.644Z,6.22
2023-02-15T05:51:13.326Z,5.90
2023-02-15T05:53:40.690Z,5.72
2023-02-15T05:56:09.395Z,5.18
2023-02-15T05:58:38.893Z,6.32
2023-02-15T06:01:14.149Z,4.85
2023-02-15T06:03:41.199Z,6.18
2023-02-15T06:06:08.240Z,5.45
2023-02-15T06:08:36.104Z,6.20
2023-02-15T06:11:02.518Z,5.68
2023-02-15T06:13:29.126Z,6.13
2023-02-15T06:15:55.439Z,5.07
2023-02-15T06:18:21.911Z,5.63
2023-02-15T06:20:49.047Z,4.75
2023-02-15T06:23:15.910Z,5.38
2023-02-15T06:25:42.417Z,5.07
2023-02-15T06:28:08.836Z,5.10
2023-02-15T06:30:35.131Z,5.63
2023-02-15T06:33:01.459Z,5.20
2023-02-15T06:35:28.233Z,5.40
2023-02-15T06:37:54.544Z,5.03
2023-02-15T06:40:21.001Z,5.93
2023-02-15T06:42:47.320Z,6.35
2023-02-15T06:45:14.231Z,5.65
2023-02-15T06:47:40.546Z,5.70
2023-02-15T06:50:08.032Z,5.60
2023-02-15T06:52:34.797Z,5.18
2023-02-15T06:55:01.235Z,5.55
2023-02-15T06:57:27.547Z,11.32
2023-02-15T06:59:53.847Z,20.45
2023-02-15T07:02:20.236Z,8.45
2023-02-15T07:04:46.671Z,7.82
2023-02-15T07:07:14.056Z,8.15
2023-02-15T07:09:40.601Z,6.22
2023-02-15T07:12:07.523Z,7.55
2023-02-15T07:14:33.845Z,5.70
2023-02-15T07:17:00.139Z,6.97
2023-02-15T07:19:26.472Z,5.35
2023-02-15T07:21:52.921Z,5.53
2023-02-15T07:24:19.304Z,6.05
2023-02-15T07:26:45.743Z,5.75
2023-02-15T07:29:12.044Z,5.78
2023-02-15T07:31:38.327Z,5.68
2023-02-15T07:34:06.908Z,5.57
2023-02-15T07:36:33.204Z,5.55
2023-02-15T07:38:59.508Z,5.40
2023-02-15T07:41:25.810Z,4.72
2023-02-15T07:43:52.106Z,5.53
2023-02-15T07:46:18.987Z,5.60
2023-02-15T07:48:45.942Z,6.13
2023-02-15T07:51:13.523Z,4.63
2023-02-15T07:53:40.246Z,7.05
2023-02-15T07:56:10.291Z,6.70
2023-02-15T07:58:36.907Z,4.65
2023-02-15T08:01:03.214Z,7.25
2023-02-15T08:03:29.525Z,5.35
2023-02-15T08:06:00.432Z,4.63
2023-02-15T08:08:27.910Z,5.53
2023-02-15T08:10:54.236Z,5.15
2023-02-15T08:13:20.933Z,4.53
2023-02-15T08:15:51.299Z,5.15
2023-02-15T08:18:17.895Z,4.78
2023-02-15T08:20:50.288Z,6.32
2023-02-15T08:23:16.576Z,6.72
2023-02-15T08:25:42.885Z,5.88
2023-02-15T08:28:09.618Z,5.97
2023-02-15T08:30:36.456Z,6.72
2023-02-15T08:33:03.433Z,5.70
2023-02-15T08:35:29.846Z,6.93
2023-02-15T08:37:56.147Z,6.80
2023-02-15T08:40:22.464Z,6.00
2023-02-15T08:42:48.748Z,6.15
2023-02-15T08:45:15.146Z,6.57
2023-02-15T08:47:41.457Z,7.07
2023-02-15T08:50:08.017Z,5.90
2023-02-15T08:52:34.312Z,6.53
2023-02-15T08:55:00.621Z,7.15
2023-02-15T08:57:28.066Z,16.60
2023-02-15T08:59:54.352Z,5.60
2023-02-15T09:02:20.785Z,5.22
2023-02-15T09:04:47.156Z,5.95
2023-02-15T09:07:13.456Z,6.05
2023-02-15T09:09:39.753Z,6.47
2023-02-15T09:12:06.423Z,6.18
2023-02-15T09:14:33.672Z,7.22
2023-02-15T09:17:00.235Z,6.00
2023-02-15T09:19:26.612Z,6.13
2023-02-15T09:21:53.116Z,7.15
2023-02-15T09:24:19.640Z,5.75
2023-02-15T09:26:48.289Z,6.18
2023-02-15T09:29:15.411Z,5.88
2023-02-15T09:31:50.121Z,5.00
2023-02-15T09:34:19.111Z,5.90
2023-02-15T09:36:46.181Z,5.93
2023-02-15T09:39:14.003Z,6.07
2023-02-15T09:44:30.958Z,4.72
2023-02-15T09:47:28.283Z,6.72
2023-02-15T09:50:00.350Z,5.72
2023-02-15T09:52:54.639Z,6.25
2023-02-15T09:55:47.153Z,6.30
2023-02-15T09:58:43.628Z,6.80
2023-02-15T10:01:32.007Z,6.18
2023-02-15T10:04:03.414Z,6.03
2023-02-15T10:06:44.659Z,5.78
2023-02-15T10:09:27.000Z,5.30
2023-02-15T10:12:06.705Z,6.13
2023-02-15T10:14:48.417Z,6.20
2023-02-15T10:17:17.633Z,5.72
2023-02-15T10:20:00.856Z,6.82
2023-02-15T10:23:07.326Z,14.48
2023-02-15T10:25:58.007Z,15.98
2023-02-15T10:28:31.121Z,6.28
2023-02-15T10:31:16.440Z,6.10
2023-02-15T10:33:44.495Z,5.25
2023-02-15T10:36:24.051Z,6.57
2023-02-15T10:38:59.961Z,5.63
2023-02-15T10:41:43.330Z,5.93
2023-02-15T10:44:21.694Z,5.85
2023-02-15T10:47:24.697Z,5.10
2023-02-15T10:50:26.512Z,7.82
2023-02-15T10:53:09.188Z,6.43
2023-02-15T10:55:38.638Z,6.22
2023-02-15T10:58:29.706Z,6.05
2023-02-15T11:01:01.274Z,6.18
2023-02-15T11:03:49.608Z,7.18
2023-02-15T11:06:19.940Z,6.43
2023-02-15T11:08:54.421Z,7.47
2023-02-15T11:11:26.444Z,6.88
2023-02-15T11:13:59.641Z,7.38
2023-02-15T11:16:33.598Z,6.53
2023-02-15T11:19:08.901Z,7.30
2023-02-15T11:21:40.122Z,6.78
2023-02-15T11:24:14.632Z,6.78
2023-02-15T11:26:49.165Z,6.50
2023-02-15T11:29:26.654Z,7.10
2023-02-15T11:32:00.861Z,7.20
2023-02-15T11:34:35.646Z,6.97
2023-02-15T11:37:08.366Z,8.10
2023-02-15T11:39:38.217Z,8.07
2023-02-15T11:42:14.922Z,7.35
2023-02-15T11:44:57.281Z,8.43
2023-02-15T11:47:23.753Z,9.02
2023-02-15T11:49:50.043Z,8.10
2023-02-15T11:52:18.744Z,9.07
2023-02-15T11:54:48.801Z,9.52
2023-02-15T11:57:24.126Z,7.53
2023-02-15T11:59:57.678Z,8.00
2023-02-15T12:02:24.082Z,8.77
2023-02-15T12:05:16.577Z,8.85
2023-02-15T12:07:47.959Z,8.43
2023-02-15T12:10:21.456Z,9.57
2023-02-15T12:12:47.847Z,8.30
2023-02-15T12:15:14.887Z,8.68
2023-02-15T12:17:49.895Z,8.88
2023-02-15T12:20:16.286Z,8.18
2023-02-15T12:22:55.605Z,9.35
2023-02-15T12:25:25.702Z,9.13
2023-02-15T12:27:52.240Z,9.82
2023-02-15T12:30:30.484Z,7.70
2023-02-15T12:33:05.799Z,8.85
2023-02-15T12:35:35.103Z,9.32
2023-02-15T12:38:05.604Z,8.45
2023-02-15T12:40:34.189Z,8.75
2023-02-15T12:43:00.775Z,8.63
2023-02-15T12:45:32.929Z,8.27
2023-02-15T12:48:14.164Z,8.93
2023-02-15T12:50:42.056Z,9.25
2023-02-15T12:53:30.696Z,8.82
2023-02-15T12:55:59.391Z,9.23
2023-02-15T12:58:30.657Z,7.88
2023-02-15T13:01:19.921Z,9.07
2023-02-15T13:04:05.265Z,9.20
2023-02-15T13:06:34.730Z,8.13
2023-02-15T13:09:38.095Z,7.85
2023-02-15T13:12:25.729Z,8.63
2023-02-15T13:14:54.641Z,9.07
2023-02-15T13:17:26.821Z,8.90
2023-02-15T13:19:54.346Z,9.10
2023-02-15T13:22:25.272Z,9.77
2023-02-15T13:24:56.649Z,10.52
2023-02-15T13:27:28.164Z,8.85
2023-02-15T13:29:58.209Z,8.68
2023-02-15T13:32:38.247Z,9.40
2023-02-15T13:35:06.665Z,10.30
2023-02-15T13:37:57.683Z,8.60
2023-02-15T13:40:31.899Z,9.45
2023-02-15T13:43:20.254Z,9.80
2023-02-15T13:46:14.489Z,10.77
2023-02-15T13:49:01.236Z,10.20
2023-02-15T13:51:47.077Z,9.48
2023-02-15T13:54:54.597Z,9.73
2023-02-15T13:57:58.110Z,10.07
2023-02-15T14:00:42.728Z,10.63
2023-02-15T14:03:33.546Z,9.63
2023-02-15T14:06:24.492Z,8.77
2023-02-15T14:08:59.003Z,9.52
2023-02-15T14:11:48.161Z,9.73
2023-02-15T14:14:30.802Z,10.73
2023-02-15T14:17:31.375Z,9.00
2023-02-15T14:20:05.418Z,9.88
2023-02-15T14:22:45.473Z,9.85
2023-02-15T14:25:24.582Z,9.90
2023-02-15T14:28:06.250Z,9.15
2023-02-15T14:30:39.651Z,8.98
2023-02-15T14:33:22.597Z,9.18
2023-02-15T14:35:49.387Z,8.93
2023-02-15T14:38:37.376Z,9.70
2023-02-15T14:41:19.058Z,9.50
2023-02-15T14:43:57.534Z,9.55
2023-02-15T14:46:23.860Z,9.35
2023-02-15T14:48:56.246Z,9.68
2023-02-15T14:51:40.832Z,9.60
2023-02-15T14:54:31.259Z,8.52
2023-02-15T14:57:03.778Z,10.00
2023-02-15T14:59:36.084Z,9.68
2023-02-15T15:02:08.476Z,9.32
2023-02-15T15:04:53.926Z,10.13
2023-02-15T15:07:24.315Z,10.10
2023-02-15T15:10:15.274Z,9.93
2023-02-15T15:12:41.693Z,10.80
2023-02-15T15:15:13.497Z,9.48
2023-02-15T15:17:39.781Z,10.80
2023-02-15T15:20:13.481Z,10.45
2023-02-15T15:25:10.132Z,9.43
2023-02-15T15:27:43.951Z,11.65
2023-02-15T15:30:30.293Z,10.68
2023-02-15T15:32:56.673Z,9.98
2023-02-15T15:35:53.463Z,10.55
2023-02-15T15:38:46.490Z,10.38
2023-02-15T15:41:42.624Z,9.07
2023-02-15T15:44:48.596Z,9.32
2023-02-15T15:47:29.591Z,10.02
2023-02-15T15:49:58.434Z,9.90
2023-02-15T15:52:25.450Z,9.57
2023-02-15T15:54:58.083Z,9.15
2023-02-15T15:57:35.874Z,10.07
2023-02-15T16:00:03.594Z,11.32
2023-02-15T16:05:07.692Z,10.07
2023-02-15T16:07:34.051Z,9.18
2023-02-15T16:10:20.245Z,10.10
2023-02-15T16:12:48.621Z,10.57
2023-02-15T16:15:18.121Z,10.57
2023-02-15T16:17:47.730Z,10.10
2023-02-15T16:20:24.315Z,10.38
2023-02-15T16:23:16.023Z,9.23
2023-02-15T16:25:51.138Z,10.23
2023-02-15T16:28:17.850Z,9.85
2023-02-15T16:30:44.181Z,10.50
2023-02-15T16:33:17.899Z,9.55
2023-02-15T16:35:56.192Z,10.23
2023-02-15T16:38:45.499Z,9.57
2023-02-15T16:41:18.350Z,9.55
2023-02-15T16:43:48.549Z,9.60
2023-02-15T16:46:21.935Z,9.75
2023-02-15T16:48:52.317Z,8.95
2023-02-15T16:51:27.563Z,11.60
2023-02-15T16:53:56.575Z,11.77
2023-02-15T16:56:28.425Z,10.55
2023-02-15T16:58:56.349Z,13.07
2023-02-15T17:01:26.510Z,10.23
2023-02-15T17:04:31.323Z,9.98
2023-02-15T17:07:00.913Z,11.20
2023-02-15T17:09:27.339Z,10.40
2023-02-15T17:11:53.731Z,9.95
2023-02-15T17:14:22.591Z,8.82
2023-02-15T17:16:53.353Z,10.90
2023-02-15T17:19:30.220Z,11.00
2023-02-15T17:22:03.042Z,10.45
2023-02-15T17:24:33.823Z,10.38
2023-02-15T17:27:04.625Z,13.20
2023-02-15T17:29:37.859Z,13.13
2023-02-15T17:32:06.116Z,13.32
2023-02-15T17:34:41.780Z,13.10
2023-02-15T17:37:42.161Z,14.15
2023-02-15T17:40:22.586Z,11.52
2023-02-15T17:42:48.919Z,15.32
2023-02-15T17:45:16.120Z,15.38
2023-02-15T17:47:42.836Z,14.35
2023-02-15T17:50:19.840Z,12.02
2023-02-15T17:52:46.310Z,13.13
2023-02-15T17:55:15.840Z,14.40
2023-02-15T17:57:42.254Z,14.95
2023-02-15T18:00:13.655Z,13.95
2023-02-15T18:02:40.530Z,14.52
2023-02-15T18:05:13.944Z,13.27
2023-02-15T18:07:40.701Z,12.70
2023-02-15T18:10:19.082Z,11.95
2023-02-15T18:12:45.391Z,11.02
2023-02-15T18:15:13.028Z,12.65
2023-02-15T18:22:46.815Z,9.32
2023-02-15T18:25:18.997Z,10.70
2023-02-15T18:27:46.236Z,11.98
2023-02-15T18:30:20.660Z,12.82
2023-02-15T18:32:48.561Z,11.90
2023-02-15T18:37:42.623Z,10.20
2023-02-15T18:40:17.582Z,12.15
2023-02-15T18:42:44.297Z,10.10
2023-02-15T18:45:25.185Z,11.05
2023-02-15T18:47:51.923Z,11.95
2023-02-15T18:50:20.055Z,11.52
2023-02-15T18:52:48.059Z,13.07
2023-02-15T18:55:32.412Z,11.32
2023-02-15T18:57:58.867Z,12.60
2023-02-15T19:00:30.398Z,12.13
2023-02-15T19:02:57.057Z,11.90
2023-02-15T19:05:24.429Z,13.30
2023-02-15T19:07:51.499Z,12.85
2023-02-15T19:10:30.193Z,13.85
2023-02-15T19:12:56.583Z,12.40
2023-02-15T19:15:25.980Z,15.27
2023-02-15T19:17:53.873Z,12.77
2023-02-15T19:22:53.175Z,11.65
2023-02-15T19:25:23.585Z,12.55
2023-02-15T19:27:50.617Z,12.38
2023-02-15T19:30:24.430Z,12.43
2023-02-15T19:32:50.860Z,14.23
2023-02-15T19:35:20.013Z,13.82
2023-02-15T19:37:50.028Z,13.23
2023-02-15T19:40:20.230Z,14.48
2023-02-15T19:42:46.995Z,12.85
2023-02-15T19:45:14.953Z,16.55
2023-02-15T19:47:41.396Z,13.00
2023-02-15T19:50:13.347Z,12.95
2023-02-15T19:52:40.263Z,12.98
2023-02-15T19:55:06.737Z,11.45
2023-02-15T19:57:33.014Z,11.05
2023-02-15T20:00:04.838Z,10.68
2023-02-15T20:02:35.842Z,13.15
2023-02-15T20:05:02.226Z,13.05
2023-02-15T20:07:28.783Z,10.27
2023-02-15T20:09:55.489Z,12.43
2023-02-15T20:12:24.692Z,11.00
2023-02-15T20:14:51.920Z,12.68
2023-02-15T20:17:18.350Z,11.65
2023-02-15T20:19:44.726Z,11.60
2023-02-15T20:22:26.830Z,12.30
2023-02-15T20:24:53.894Z,11.85
2023-02-15T20:27:20.317Z,10.93
2023-02-15T20:29:46.738Z,11.85
2023-02-15T20:32:13.188Z,11.40
2023-02-15T20:34:39.613Z,10.45
2023-02-15T20:37:06.044Z,9.93
2023-02-15T20:39:32.368Z,10.68
2023-02-15T20:41:58.693Z,12.13
2023-02-15T20:44:31.459Z,12.77
2023-02-15T20:46:59.023Z,11.90
2023-02-15T20:49:27.354Z,11.65
2023-02-15T20:51:54.997Z,11.80
2023-02-15T20:54:23.944Z,11.75
2023-02-15T20:56:50.425Z,12.93
2023-02-15T20:59:23.664Z,14.48
2023-02-15T21:01:52.162Z,13.27
2023-02-15T21:04:22.842Z,11.45
2023-02-15T21:06:49.411Z,12.68
2023-02-15T21:09:16.988Z,12.20
2023-02-15T21:11:44.778Z,12.45
2023-02-15T21:14:17.599Z,11.70
2023-02-15T21:16:45.274Z,11.45
2023-02-15T21:19:13.724Z,11.05
2023-02-15T21:21:40.332Z,11.82
2023-02-15T21:24:09.556Z,12.68
2023-02-15T21:26:43.857Z,12.90
2023-02-15T21:29:21.932Z,13.75
2023-02-15T21:31:48.707Z,13.48
2023-02-15T21:34:15.705Z,11.93
2023-02-15T21:36:43.314Z,11.82
2023-02-15T21:39:23.943Z,10.75
2023-02-15T21:41:52.875Z,10.77
2023-02-15T21:44:21.807Z,9.88
2023-02-15T21:46:48.252Z,11.15
2023-02-15T21:49:14.583Z,10.68
2023-02-15T21:51:40.999Z,11.15
2023-02-15T21:54:12.413Z,10.88
2023-02-15T21:56:38.855Z,10.77
2023-02-15T21:59:13.402Z,10.98
2023-02-15T22:01:42.553Z,10.43
2023-02-15T22:04:14.663Z,9.48
2023-02-15T22:06:41.643Z,11.38
2023-02-15T22:09:17.595Z,11.77
2023-02-15T22:11:44.403Z,10.73
2023-02-15T22:14:35.487Z,10.10
2023-02-15T22:17:03.624Z,10.48
2023-02-15T22:19:30.143Z,11.13
2023-02-15T22:21:56.507Z,10.35
2023-02-15T22:24:22.813Z,8.85
2023-02-15T22:26:49.108Z,8.85
2023-02-15T22:29:18.399Z,9.60
2023-02-15T22:31:44.994Z,10.32
2023-02-15T22:34:37.765Z,10.93
2023-02-15T22:37:04.078Z,16.80
2023-02-15T22:39:30.354Z,14.13
2023-02-15T22:41:56.991Z,11.07
2023-02-15T22:44:32.134Z,9.75
2023-02-15T22:47:02.184Z,11.23
2023-02-15T22:49:28.523Z,10.05
2023-02-15T22:51:54.821Z,12.20
2023-02-15T22:54:21.113Z,10.13
2023-02-15T22:56:50.968Z,10.30
2023-02-15T22:59:24.190Z,11.30
2023-02-15T23:01:50.659Z,10.10
2023-02-15T23:04:19.126Z,10.07
2023-02-15T23:06:46.067Z,11.27
2023-02-15T23:09:12.813Z,10.65
2023-02-15T23:11:39.692Z,10.55
2023-02-15T23:14:06.476Z,11.40
2023-02-15T23:16:32.831Z,11.60
2023-02-15T23:18:59.281Z,11.45
2023-02-15T23:21:29.659Z,10.65
2023-02-15T23:24:12.803Z,10.55
2023-02-15T23:26:39.135Z,11.90
2023-02-15T23:29:11.906Z,11.98
2023-02-15T23:31:42.120Z,13.07
2023-02-15T23:34:29.203Z,10.30
2023-02-15T23:36:56.759Z,11.60
2023-02-15T23:39:25.863Z,13.23
2023-02-15T23:41:52.452Z,10.45
2023-02-15T23:44:19.377Z,10.95
2023-02-15T23:46:47.281Z,14.55
2023-02-15T23:51:47.184Z,8.50
2023-02-15T23:54:15.869Z,8.82
2023-02-15T23:56:45.097Z,9.50
2023-02-15T23:59:17.943Z,9.50
